createdAt,value
2023-01-09T00:01:00.267Z,92200.16
2023-01-09T00:03:33.107Z,92199.63
2023-01-09T00:06:05.505Z,92202.72
2023-01-09T00:08:37.570Z,92209.19
2023-01-09T00:11:09.696Z,92196.25
2023-01-09T00:13:41.655Z,92202.19
2023-01-09T00:16:13.736Z,92191.34
2023-01-09T00:18:46.377Z,92179.44
2023-01-09T00:21:19.477Z,92176.66
2023-01-09T00:23:53.385Z,92178.22
2023-01-09T00:26:25.505Z,92187.69
2023-01-09T00:28:57.497Z,92181.44
2023-01-09T00:31:29.525Z,92185.34
2023-01-09T00:34:04.690Z,92178.88
2023-01-09T00:36:36.795Z,92187.31
2023-01-09T00:39:08.755Z,92190.56
2023-01-09T00:41:42.743Z,92191.00
2023-01-09T00:44:16.412Z,92184.88
2023-01-09T00:46:50.237Z,92183.97
2023-01-09T00:49:23.302Z,92182.63
2023-01-09T00:51:55.506Z,92188.41
2023-01-09T00:54:28.671Z,92187.47
2023-01-09T00:57:00.926Z,92192.06
2023-01-09T00:59:32.950Z,92187.06
2023-01-09T01:02:05.321Z,92188.53
2023-01-09T01:04:56.137Z,92194.09
2023-01-09T01:07:40.838Z,92187.28
2023-01-09T01:10:15.569Z,92178.84
2023-01-09T01:12:48.437Z,92182.16
2023-01-09T01:15:20.944Z,92166.94
2023-01-09T01:17:53.206Z,92161.97
2023-01-09T01:20:26.158Z,92161.63
2023-01-09T01:22:58.237Z,92163.38
2023-01-09T01:25:30.279Z,92160.81
2023-01-09T01:28:02.322Z,92159.28
2023-01-09T01:30:37.376Z,92163.25
2023-01-09T01:33:09.997Z,92157.50
2023-01-09T01:35:42.595Z,92159.13
2023-01-09T01:38:14.617Z,92150.03
2023-01-09T01:40:52.137Z,92140.38
2023-01-09T01:43:24.368Z,92141.81
2023-01-09T01:45:56.400Z,92145.34
2023-01-09T01:48:29.873Z,92147.22
2023-01-09T01:51:04.314Z,92147.56
2023-01-09T01:53:37.719Z,92139.75
2023-01-09T01:56:13.822Z,92139.00
2023-01-09T01:58:47.494Z,92123.91
2023-01-09T02:01:20.427Z,92126.81
2023-01-09T02:03:54.271Z,92116.78
2023-01-09T02:06:27.337Z,92116.13
2023-01-09T02:09:00.305Z,92122.66
2023-01-09T02:11:32.531Z,92115.56
2023-01-09T02:14:04.586Z,92111.47
2023-01-09T02:16:47.027Z,92114.22
2023-01-09T02:19:33.504Z,92112.47
2023-01-09T02:22:12.639Z,92109.38
2023-01-09T02:24:57.163Z,92113.94
2023-01-09T02:27:56.157Z,92112.38
2023-01-09T02:30:40.424Z,92104.03
2023-01-09T02:33:20.755Z,92100.47
2023-01-09T02:36:00.139Z,92108.94
2023-01-09T02:38:35.572Z,92108.28
2023-01-09T02:41:10.991Z,92105.63
2023-01-09T02:43:43.035Z,92109.53
2023-01-09T02:46:19.861Z,92097.06
2023-01-09T02:48:52.765Z,92085.69
2023-01-09T02:51:29.887Z,92085.47
2023-01-09T02:54:08.347Z,92087.94
2023-01-09T02:56:57.666Z,92089.81
2023-01-09T02:59:34.063Z,92088.25
2023-01-09T03:02:19.346Z,92084.34
2023-01-09T03:04:56.903Z,92083.69
2023-01-09T03:07:32.815Z,92089.03
2023-01-09T03:10:08.628Z,92085.69
2023-01-09T03:12:42.514Z,92090.81
2023-01-09T03:15:15.042Z,92092.50
2023-01-09T03:17:49.360Z,92095.25
2023-01-09T03:20:23.733Z,92104.94
2023-01-09T03:22:56.627Z,92106.28
2023-01-09T03:25:29.564Z,92097.81
2023-01-09T03:28:02.713Z,92091.59
2023-01-09T03:30:35.567Z,92094.59
2023-01-09T03:33:08.249Z,92083.53
2023-01-09T03:35:40.227Z,92084.78
2023-01-09T03:38:12.302Z,92083.09
2023-01-09T03:40:44.303Z,92074.06
2023-01-09T03:43:16.343Z,92080.63
2023-01-09T03:45:48.377Z,92079.16
2023-01-09T03:48:21.128Z,92079.34
2023-01-09T03:50:53.899Z,92072.44
2023-01-09T03:53:26.876Z,92077.19
2023-01-09T03:55:58.869Z,92077.38
2023-01-09T03:58:30.993Z,92076.47
2023-01-09T04:01:04.631Z,92079.91
2023-01-09T04:03:37.530Z,92079.00
2023-01-09T04:06:09.755Z,92068.66
2023-01-09T04:08:41.834Z,92069.16
2023-01-09T04:11:13.928Z,92072.72
2023-01-09T04:13:45.983Z,92075.22
2023-01-09T04:16:18.033Z,92070.97
2023-01-09T04:18:50.799Z,92069.47
2023-01-09T04:21:22.808Z,92067.47
2023-01-09T04:23:54.872Z,92076.50
2023-01-09T04:26:26.881Z,92073.34
2023-01-09T04:28:59.837Z,92072.66
2023-01-09T04:31:31.865Z,92068.41
2023-01-09T04:34:04.649Z,92069.25
2023-01-09T04:36:36.651Z,92063.34
2023-01-09T04:39:08.812Z,92065.84
2023-01-09T04:41:49.812Z,92061.84
2023-01-09T04:44:25.481Z,92061.50
2023-01-09T04:46:58.313Z,92055.44
2023-01-09T04:49:31.041Z,92055.47
2023-01-09T04:52:03.102Z,92056.56
2023-01-09T04:54:35.127Z,92052.16
2023-01-09T04:57:07.247Z,92052.38
2023-01-09T04:59:39.276Z,92055.88
2023-01-09T05:02:11.414Z,92048.66
2023-01-09T05:04:44.209Z,92052.75
2023-01-09T05:07:16.433Z,92052.31
2023-01-09T05:09:48.510Z,92048.50
2023-01-09T05:12:20.520Z,92055.19
2023-01-09T05:14:52.683Z,92066.22
2023-01-09T05:17:24.685Z,92068.09
2023-01-09T05:19:57.405Z,92077.66
2023-01-09T05:22:29.416Z,92073.78
2023-01-09T05:25:01.635Z,92068.00
2023-01-09T05:27:33.648Z,92071.81
2023-01-09T05:30:06.242Z,92068.19
2023-01-09T05:32:38.275Z,92062.47
2023-01-09T05:35:11.041Z,92057.56
2023-01-09T05:37:43.044Z,92051.22
2023-01-09T05:40:15.153Z,92050.53
2023-01-09T05:42:47.171Z,92053.53
2023-01-09T05:45:19.268Z,92052.06
2023-01-09T05:47:51.252Z,92052.84
2023-01-09T05:50:23.976Z,92050.53
2023-01-09T05:52:56.033Z,92051.75
2023-01-09T05:55:28.010Z,92041.72
2023-01-09T05:58:00.158Z,92046.31
2023-01-09T06:00:32.571Z,92036.28
2023-01-09T06:03:04.646Z,92036.81
2023-01-09T06:05:37.357Z,92033.00
2023-01-09T06:08:09.581Z,92026.91
2023-01-09T06:10:41.556Z,92025.13
2023-01-09T06:13:13.603Z,92025.97
2023-01-09T06:15:47.030Z,92032.00
2023-01-09T06:18:19.085Z,92033.31
2023-01-09T06:20:51.740Z,92027.00
2023-01-09T06:23:23.844Z,92029.56
2023-01-09T06:25:55.884Z,92029.34
2023-01-09T06:28:27.960Z,92030.81
2023-01-09T06:31:00.025Z,92028.38
2023-01-09T06:33:32.593Z,92026.47
2023-01-09T06:36:05.686Z,92013.75
2023-01-09T06:38:37.725Z,92030.69
2023-01-09T06:41:09.942Z,92023.50
2023-01-09T06:43:41.986Z,92026.94
2023-01-09T06:46:14.044Z,92024.66
2023-01-09T06:48:46.168Z,92023.81
2023-01-09T06:51:18.880Z,92027.59
2023-01-09T06:53:50.969Z,92019.91
2023-01-09T06:56:22.973Z,92021.44
2023-01-09T06:58:55.216Z,92028.31
2023-01-09T07:01:27.479Z,92031.84
2023-01-09T07:03:59.586Z,92035.72
2023-01-09T07:06:32.506Z,92042.72
2023-01-09T07:09:05.302Z,92035.81
2023-01-09T07:11:37.537Z,92026.31
2023-01-09T07:14:09.587Z,92028.53
2023-01-09T07:16:41.578Z,92021.16
2023-01-09T07:19:13.655Z,92033.50
2023-01-09T07:21:46.431Z,92043.94
2023-01-09T07:24:18.503Z,92035.31
2023-01-09T07:26:50.560Z,92029.81
2023-01-09T07:29:22.553Z,92026.88
2023-01-09T07:31:54.606Z,92023.50
2023-01-09T07:34:26.724Z,92017.84
2023-01-09T07:36:59.376Z,92018.47
2023-01-09T07:39:31.536Z,92024.69
2023-01-09T07:42:03.608Z,92028.44
2023-01-09T07:44:35.689Z,92027.25
2023-01-09T07:47:08.050Z,92030.41
2023-01-09T07:49:40.130Z,92041.72
2023-01-09T07:52:12.816Z,92040.63
2023-01-09T07:54:44.901Z,92039.25
2023-01-09T07:57:16.911Z,92041.22
2023-01-09T07:59:48.993Z,92039.78
2023-01-09T08:02:21.087Z,92042.25
2023-01-09T08:04:53.219Z,92042.59
2023-01-09T08:07:25.859Z,92025.59
2023-01-09T08:09:58.110Z,92043.53
2023-01-09T08:12:30.111Z,92045.66
2023-01-09T08:15:02.255Z,92036.16
2023-01-09T08:17:34.289Z,92039.28
2023-01-09T08:20:06.541Z,92037.53
2023-01-09T08:22:40.465Z,92033.41
2023-01-09T08:25:13.038Z,92025.97
2023-01-09T08:27:45.125Z,92037.59
2023-01-09T08:30:17.774Z,92034.50
2023-01-09T08:32:50.327Z,92040.72
2023-01-09T08:35:22.436Z,92042.53
2023-01-09T08:37:55.129Z,92046.16
2023-01-09T08:40:27.277Z,92054.16
2023-01-09T08:43:17.237Z,92048.47
2023-01-09T08:46:07.892Z,92046.91
2023-01-09T08:48:39.851Z,92041.47
2023-01-09T08:51:11.902Z,92037.03
2023-01-09T08:53:44.633Z,92030.81
2023-01-09T08:56:16.604Z,92021.22
2023-01-09T08:58:48.658Z,92030.78
2023-01-09T09:01:20.657Z,92029.75
2023-01-09T09:03:52.991Z,92030.22
2023-01-09T09:06:24.986Z,92037.47
2023-01-09T09:09:02.360Z,92035.44
2023-01-09T09:11:34.886Z,92015.69
2023-01-09T09:14:21.759Z,92012.25
2023-01-09T09:16:54.024Z,92005.69
2023-01-09T09:19:26.098Z,92004.97
2023-01-09T09:21:58.097Z,92000.56
2023-01-09T09:24:30.783Z,91992.66
2023-01-09T09:27:04.030Z,91991.38
2023-01-09T09:29:36.178Z,91987.59
2023-01-09T09:32:08.192Z,91985.06
2023-01-09T09:34:40.301Z,91974.72
2023-01-09T09:37:12.413Z,91975.91
2023-01-09T09:39:45.274Z,91953.91
2023-01-09T09:42:45.405Z,91951.59
2023-01-09T09:45:24.065Z,91936.22
2023-01-09T09:47:59.952Z,91936.50
2023-01-09T09:50:50.543Z,91923.16
2023-01-09T09:53:26.044Z,91910.41
2023-01-09T09:55:58.931Z,91907.66
2023-01-09T09:58:34.027Z,91899.25
2023-01-09T10:01:07.085Z,91883.91
2023-01-09T10:03:41.473Z,91889.75
2023-01-09T10:06:16.664Z,91880.78
2023-01-09T10:08:53.205Z,91883.94
2023-01-09T10:11:28.843Z,91881.38
2023-01-09T10:14:19.121Z,91873.84
2023-01-09T10:17:06.307Z,91865.97
2023-01-09T10:19:48.421Z,91871.56
2023-01-09T10:22:25.188Z,91875.94
2023-01-09T10:25:06.090Z,91863.34
2023-01-09T10:27:47.836Z,91858.25
2023-01-09T10:30:25.673Z,91845.91
2023-01-09T10:33:06.498Z,91847.28
2023-01-09T10:35:49.193Z,91849.53
2023-01-09T10:38:24.672Z,91856.69
2023-01-09T10:41:02.413Z,91845.28
2023-01-09T10:43:39.062Z,91845.63
2023-01-09T10:46:14.796Z,91834.50
2023-01-09T10:48:50.364Z,91821.00
2023-01-09T10:51:24.554Z,91823.97
2023-01-09T10:53:56.635Z,91811.56
2023-01-09T10:56:30.450Z,91810.19
2023-01-09T10:59:03.201Z,91805.41
2023-01-09T11:01:37.651Z,91802.81
2023-01-09T11:04:17.367Z,91808.25
2023-01-09T11:06:50.735Z,91794.09
2023-01-09T11:09:22.828Z,91788.41
2023-01-09T11:11:54.865Z,91790.63
2023-01-09T11:14:30.548Z,91798.59
2023-01-09T11:17:03.577Z,91784.69
2023-01-09T11:19:35.709Z,91791.03
2023-01-09T11:22:08.732Z,91795.47
2023-01-09T11:24:41.367Z,91782.50
2023-01-09T11:27:25.292Z,91780.28
2023-01-09T11:30:06.804Z,91761.66
2023-01-09T11:32:38.823Z,91764.44
2023-01-09T11:35:16.764Z,91767.19
2023-01-09T11:37:56.944Z,91767.09
2023-01-09T11:40:31.659Z,91762.25
2023-01-09T11:43:08.769Z,91768.19
2023-01-09T11:45:56.425Z,91771.25
2023-01-09T11:48:36.430Z,91774.81
2023-01-09T11:51:19.081Z,91777.59
2023-01-09T11:54:00.949Z,91767.19
2023-01-09T11:56:33.049Z,91750.44
2023-01-09T11:59:08.820Z,91745.63
2023-01-09T12:01:57.996Z,91735.47
2023-01-09T12:04:34.900Z,91727.09
2023-01-09T12:07:24.490Z,91720.53
2023-01-09T12:10:01.894Z,91714.25
2023-01-09T12:12:38.056Z,91716.53
2023-01-09T12:15:20.709Z,91711.69
2023-01-09T12:17:58.754Z,91699.91
2023-01-09T12:20:37.966Z,91700.97
2023-01-09T12:23:17.889Z,91707.28
2023-01-09T12:25:53.303Z,91709.19
2023-01-09T12:28:39.335Z,91692.84
2023-01-09T12:31:19.063Z,91686.56
2023-01-09T12:33:58.702Z,91687.03
2023-01-09T12:36:34.953Z,91695.00
2023-01-09T12:39:14.161Z,91690.69
2023-01-09T12:42:04.111Z,91696.00
2023-01-09T12:44:44.275Z,91693.63
2023-01-09T12:47:28.100Z,91686.25
2023-01-09T12:50:06.373Z,91692.44
2023-01-09T12:52:41.297Z,91691.94
2023-01-09T12:55:17.366Z,91686.75
2023-01-09T12:57:50.635Z,91679.41
2023-01-09T13:00:24.610Z,91678.06
2023-01-09T13:03:11.259Z,91676.50
2023-01-09T13:05:46.568Z,91675.63
2023-01-09T13:08:22.287Z,91669.16
2023-01-09T13:10:57.607Z,91658.91
2023-01-09T13:13:33.548Z,91665.56
2023-01-09T13:16:10.314Z,91666.31
2023-01-09T13:18:43.682Z,91651.16
2023-01-09T13:21:16.559Z,91654.88
2023-01-09T13:23:51.798Z,91647.97
2023-01-09T13:26:25.537Z,91650.25
2023-01-09T13:29:02.397Z,91646.19
2023-01-09T13:31:42.736Z,91651.81
2023-01-09T13:34:21.990Z,91650.25
2023-01-09T13:36:56.453Z,91661.63
2023-01-09T13:39:31.577Z,91659.53
2023-01-09T13:42:22.523Z,91659.94
2023-01-09T13:44:55.867Z,91653.13
2023-01-09T13:47:28.329Z,91648.41
2023-01-09T13:50:04.562Z,91646.59
2023-01-09T13:52:38.454Z,91650.03
2023-01-09T13:55:25.398Z,91647.25
2023-01-09T13:58:16.003Z,91631.28
2023-01-09T14:00:49.716Z,91651.03
2023-01-09T14:03:25.194Z,91642.88
2023-01-09T14:06:17.507Z,91651.28
2023-01-09T14:09:03.704Z,91641.28
2023-01-09T14:11:35.773Z,91631.41
2023-01-09T14:14:24.050Z,91626.47
2023-01-09T14:16:58.471Z,91631.19
2023-01-09T14:19:35.909Z,91626.09
2023-01-09T14:22:23.116Z,91633.59
2023-01-09T14:25:00.856Z,91635.03
2023-01-09T14:28:03.540Z,91631.00
2023-01-09T14:30:36.951Z,91630.47
2023-01-09T14:33:26.215Z,91627.78
2023-01-09T14:36:03.326Z,91620.06
2023-01-09T14:38:37.917Z,91631.91
2023-01-09T14:41:20.213Z,91616.97
2023-01-09T14:43:54.624Z,91596.25
2023-01-09T14:46:30.563Z,91616.63
2023-01-09T14:49:06.250Z,91615.66
2023-01-09T14:51:42.543Z,91616.81
2023-01-09T14:54:31.395Z,91618.44
2023-01-09T14:57:22.275Z,91614.72
2023-01-09T14:59:55.008Z,91616.44
2023-01-09T15:02:29.345Z,91597.06
2023-01-09T15:05:05.345Z,91607.28
2023-01-09T15:07:43.616Z,91605.00
2023-01-09T15:10:17.504Z,91611.38
2023-01-09T15:12:51.463Z,91597.38
2023-01-09T15:15:24.003Z,91586.06
2023-01-09T15:17:57.816Z,91594.97
2023-01-09T15:20:31.121Z,91586.13
2023-01-09T15:23:03.555Z,91580.72
2023-01-09T15:25:40.643Z,91576.94
2023-01-09T15:28:22.354Z,91577.72
2023-01-09T15:31:05.911Z,91578.88
2023-01-09T15:33:38.774Z,91585.13
2023-01-09T15:36:13.220Z,91587.28
2023-01-09T15:38:45.646Z,91588.25
2023-01-09T15:41:39.317Z,91587.28
2023-01-09T15:44:13.927Z,91592.00
2023-01-09T15:46:49.305Z,91598.19
2023-01-09T15:49:21.775Z,91587.16
2023-01-09T15:51:54.014Z,91575.03
2023-01-09T15:54:28.372Z,91585.13
2023-01-09T15:57:19.140Z,91576.78
2023-01-09T15:59:52.315Z,91585.63
2023-01-09T16:02:43.780Z,91582.47
2023-01-09T16:05:16.658Z,91584.56
2023-01-09T16:07:50.081Z,91567.66
2023-01-09T16:10:23.449Z,91564.41
2023-01-09T16:12:55.749Z,91573.16
2023-01-09T16:15:32.789Z,91563.44
2023-01-09T16:18:05.695Z,91574.75
2023-01-09T16:20:37.835Z,91573.88
2023-01-09T16:23:17.898Z,91564.25
2023-01-09T16:25:49.950Z,91560.22
2023-01-09T16:28:26.235Z,91549.25
2023-01-09T16:31:00.311Z,91544.34
2023-01-09T16:33:32.426Z,91541.34
2023-01-09T16:36:05.515Z,91532.53
2023-01-09T16:38:37.538Z,91532.81
2023-01-09T16:41:32.351Z,91538.47
2023-01-09T16:44:08.796Z,91520.72
2023-01-09T16:46:43.023Z,91516.91
2023-01-09T16:49:16.756Z,91514.53
2023-01-09T16:51:48.848Z,91512.97
2023-01-09T16:54:21.049Z,91512.28
2023-01-09T16:56:54.087Z,91528.63
2023-01-09T16:59:27.196Z,91534.41
2023-01-09T17:01:59.928Z,91528.53
2023-01-09T17:04:32.276Z,91531.22
2023-01-09T17:07:04.241Z,91521.16
2023-01-09T17:09:37.480Z,91527.00
2023-01-09T17:12:15.045Z,91512.50
2023-01-09T17:14:47.185Z,91530.84
2023-01-09T17:17:20.447Z,91531.53
2023-01-09T17:19:52.770Z,91537.38
2023-01-09T17:22:24.764Z,91523.34
2023-01-09T17:25:14.758Z,91518.72
2023-01-09T17:28:05.147Z,91525.44
2023-01-09T17:30:37.215Z,91525.63
2023-01-09T17:33:14.263Z,91518.13
2023-01-09T17:35:46.349Z,91507.88
2023-01-09T17:38:18.597Z,91514.19
2023-01-09T17:40:51.615Z,91517.00
2023-01-09T17:43:23.836Z,91519.28
2023-01-09T17:45:55.937Z,91520.25
2023-01-09T17:48:28.611Z,91512.56
2023-01-09T17:51:01.077Z,91507.66
2023-01-09T17:53:33.059Z,91510.47
2023-01-09T17:56:05.323Z,91500.09
2023-01-09T17:58:37.307Z,91507.28
2023-01-09T18:01:09.908Z,91494.31
2023-01-09T18:03:42.747Z,91485.19
2023-01-09T18:06:16.110Z,91476.97
2023-01-09T18:08:48.171Z,91466.09
2023-01-09T18:11:21.259Z,91473.94
2023-01-09T18:13:53.406Z,91472.13
2023-01-09T18:16:26.621Z,91478.97
2023-01-09T18:19:00.426Z,91472.06
2023-01-09T18:21:32.770Z,91472.50
2023-01-09T18:24:05.188Z,91476.97
2023-01-09T18:26:37.447Z,91474.84
2023-01-09T18:29:10.750Z,91469.34
2023-01-09T18:31:42.935Z,91462.53
2023-01-09T18:34:15.879Z,91459.34
2023-01-09T18:36:48.199Z,91472.31
2023-01-09T18:39:21.350Z,91466.84
2023-01-09T18:41:53.587Z,91466.84
2023-01-09T18:44:25.862Z,91464.47
2023-01-09T18:46:58.228Z,91471.66
2023-01-09T18:49:30.957Z,91470.78
2023-01-09T18:52:03.074Z,91466.47
2023-01-09T18:54:35.426Z,91465.59
2023-01-09T18:57:07.565Z,91456.50
2023-01-09T18:59:39.663Z,91472.81
2023-01-09T19:02:18.342Z,91463.66
2023-01-09T19:04:51.003Z,91449.72
2023-01-09T19:07:23.026Z,91447.72
2023-01-09T19:09:55.023Z,91454.53
2023-01-09T19:12:27.074Z,91454.81
2023-01-09T19:14:59.073Z,91450.19
2023-01-09T19:17:32.586Z,91452.00
2023-01-09T19:20:06.499Z,91441.28
2023-01-09T19:22:38.763Z,91436.66
2023-01-09T19:25:11.795Z,91429.06
2023-01-09T19:27:43.928Z,91416.69
2023-01-09T19:30:16.386Z,91424.81
2023-01-09T19:32:49.193Z,91401.13
2023-01-09T19:35:21.853Z,91406.28
2023-01-09T19:37:54.734Z,91407.75
2023-01-09T19:40:27.579Z,91412.16
2023-01-09T19:43:01.129Z,91413.66
2023-01-09T19:45:34.792Z,91419.25
2023-01-09T19:48:07.331Z,91406.88
2023-01-09T19:50:42.266Z,91401.63
2023-01-09T19:53:15.608Z,91399.88
2023-01-09T19:55:48.928Z,91399.31
2023-01-09T19:58:21.322Z,91381.47
2023-01-09T20:00:53.375Z,91381.25
2023-01-09T20:03:25.614Z,91375.13
2023-01-09T20:06:03.950Z,91373.47
2023-01-09T20:08:36.286Z,91369.34
2023-01-09T20:11:08.333Z,91357.56
2023-01-09T20:13:40.448Z,91358.25
2023-01-09T20:16:19.117Z,91342.38
2023-01-09T20:18:51.459Z,91338.66
2023-01-09T20:21:26.214Z,91340.94
2023-01-09T20:23:59.300Z,91338.53
2023-01-09T20:26:32.553Z,91346.72
2023-01-09T20:29:04.760Z,91340.66
2023-01-09T20:31:36.893Z,91331.00
2023-01-09T20:34:09.935Z,91347.72
2023-01-09T20:36:42.639Z,91330.00
2023-01-09T20:39:15.019Z,91328.94
2023-01-09T20:41:47.008Z,91336.84
2023-01-09T20:44:19.092Z,91317.16
2023-01-09T20:46:52.849Z,91331.88
2023-01-09T20:49:24.968Z,91319.41
2023-01-09T20:51:57.675Z,91321.59
2023-01-09T20:54:29.732Z,91319.22
2023-01-09T20:57:01.826Z,91319.94
2023-01-09T20:59:33.824Z,91315.63
2023-01-09T21:02:06.116Z,91301.06
2023-01-09T21:04:38.065Z,91302.69
2023-01-09T21:07:11.536Z,91307.47
2023-01-09T21:09:43.555Z,91300.94
2023-01-09T21:12:26.809Z,91295.75
2023-01-09T21:15:01.403Z,91296.25
2023-01-09T21:17:34.053Z,91317.25
2023-01-09T21:20:07.289Z,91311.97
2023-01-09T21:22:40.098Z,91291.44
2023-01-09T21:25:12.413Z,91293.91
2023-01-09T21:27:45.405Z,91284.47
2023-01-09T21:30:17.384Z,91301.97
2023-01-09T21:32:49.546Z,91289.59
2023-01-09T21:35:21.575Z,91287.09
2023-01-09T21:37:54.333Z,91281.53
2023-01-09T21:40:26.381Z,91301.78
2023-01-09T21:43:16.661Z,91290.53
2023-01-09T21:46:06.734Z,91278.28
2023-01-09T21:48:38.788Z,91257.06
2023-01-09T21:51:10.803Z,91257.03
2023-01-09T21:53:43.519Z,91260.72
2023-01-09T21:56:15.565Z,91254.91
2023-01-09T21:58:48.505Z,91251.63
2023-01-09T22:01:20.606Z,91248.09
2023-01-09T22:03:52.986Z,91235.00
2023-01-09T22:06:25.442Z,91231.75
2023-01-09T22:08:58.135Z,91225.50
2023-01-09T22:11:30.151Z,91245.78
2023-01-09T22:14:02.225Z,91233.88
2023-01-09T22:16:34.343Z,91235.97
2023-01-09T22:19:06.474Z,91241.56
2023-01-09T22:21:38.732Z,91229.91
2023-01-09T22:24:13.499Z,91224.72
2023-01-09T22:26:46.096Z,91237.69
2023-01-09T22:29:18.184Z,91241.25
2023-01-09T22:31:50.227Z,91246.13
2023-01-09T22:34:22.477Z,91241.94
2023-01-09T22:36:54.573Z,91241.44
2023-01-09T22:39:27.381Z,91236.75
2023-01-09T22:41:59.383Z,91228.19
2023-01-09T22:44:31.442Z,91224.16
2023-01-09T22:47:03.655Z,91227.38
2023-01-09T22:49:51.968Z,91210.25
2023-01-09T22:52:24.585Z,91218.03
2023-01-09T22:54:57.339Z,91207.69
2023-01-09T22:57:29.373Z,91199.53
2023-01-09T23:00:01.672Z,91193.78
2023-01-09T23:02:35.795Z,91208.63
2023-01-09T23:05:08.111Z,91210.56
2023-01-09T23:07:40.125Z,91209.00
2023-01-09T23:10:12.873Z,91194.03
2023-01-09T23:12:47.744Z,91200.94
2023-01-09T23:15:19.799Z,91199.78
2023-01-09T23:17:51.867Z,91196.63
2023-01-09T23:20:23.981Z,91186.59
2023-01-09T23:22:57.706Z,91187.50
2023-01-09T23:25:31.631Z,91184.22
2023-01-09T23:28:04.023Z,91180.56
2023-01-09T23:30:36.130Z,91168.88
2023-01-09T23:33:08.134Z,91164.00
2023-01-09T23:35:40.253Z,91163.91
2023-01-09T23:38:13.022Z,91154.19
2023-01-09T23:40:45.824Z,91155.31
2023-01-09T23:43:17.545Z,91144.28
2023-01-09T23:45:50.577Z,91147.66
2023-01-09T23:48:22.594Z,91151.22
2023-01-09T23:50:54.685Z,91147.06
2023-01-09T23:53:26.680Z,91130.88
2023-01-09T23:56:00.442Z,91132.88
2023-01-09T23:58:32.521Z,91126.44
